sensor_id;sensor_type;location;lat;lon;timestamp;P1;durP1;ratioP1;P2;durP2;ratioP2
10721;SDS011;5412;59.450;18.124;2024-02-16T00:00:55;29.60;;;10.23;;
10721;SDS011;5412;59.450;18.124;2024-02-16T00:03:22;170.30;;;12.97;;
10721;SDS011;5412;59.450;18.124;2024-02-16T00:05:47;37.13;;;9.63;;
10721;SDS011;5412;59.450;18.124;2024-02-16T00:08:16;215.13;;;17.97;;
10721;SDS011;5412;59.450;18.124;2024-02-16T00:10:43;104.43;;;12.50;;
10721;SDS011;5412;59.450;18.124;2024-02-16T00:13:08;44.10;;;9.47;;
10721;SDS011;5412;59.450;18.124;2024-02-16T00:15:34;35.30;;;9.87;;
10721;SDS011;5412;59.450;18.124;2024-02-16T00:18:00;36.77;;;9.70;;
10721;SDS011;5412;59.450;18.124;2024-02-16T00:20:25;246.57;;;18.73;;
10721;SDS011;5412;59.450;18.124;2024-02-16T00:22:51;76.97;;;10.43;;
10721;SDS011;5412;59.450;18.124;2024-02-16T00:25:17;28.27;;;10.13;;
10721;SDS011;5412;59.450;18.124;2024-02-16T00:27:43;38.30;;;9.30;;
10721;SDS011;5412;59.450;18.124;2024-02-16T00:30:09;108.57;;;13.27;;
10721;SDS011;5412;59.450;18.124;2024-02-16T00:32:38;29.07;;;8.87;;
10721;SDS011;5412;59.450;18.124;2024-02-16T00:35:04;79.77;;;11.47;;
10721;SDS011;5412;59.450;18.124;2024-02-16T00:37:29;151.00;;;15.10;;
10721;SDS011;5412;59.450;18.124;2024-02-16T00:39:55;182.97;;;15.03;;
10721;SDS011;5412;59.450;18.124;2024-02-16T00:42:21;85.57;;;10.00;;
10721;SDS011;5412;59.450;18.124;2024-02-16T00:44:51;26.13;;;8.33;;
10721;SDS011;5412;59.450;18.124;2024-02-16T00:47:17;211.73;;;15.47;;
10721;SDS011;5412;59.450;18.124;2024-02-16T00:49:43;46.23;;;8.33;;
10721;SDS011;5412;59.450;18.124;2024-02-16T00:52:09;21.33;;;7.57;;
10721;SDS011;5412;59.450;18.124;2024-02-16T00:54:35;41.97;;;9.50;;
10721;SDS011;5412;59.450;18.124;2024-02-16T00:57:01;225.40;;;15.07;;
10721;SDS011;5412;59.450;18.124;2024-02-16T00:59:30;140.47;;;14.47;;
10721;SDS011;5412;59.450;18.124;2024-02-16T01:01:56;291.67;;;16.07;;
10721;SDS011;5412;59.450;18.124;2024-02-16T01:04:22;166.33;;;13.63;;
10721;SDS011;5412;59.450;18.124;2024-02-16T01:06:48;59.20;;;8.77;;
10721;SDS011;5412;59.450;18.124;2024-02-16T01:09:15;81.20;;;9.77;;
10721;SDS011;5412;59.450;18.124;2024-02-16T01:11:41;177.93;;;12.90;;
10721;SDS011;5412;59.450;18.124;2024-02-16T01:14:07;26.40;;;7.90;;
10721;SDS011;5412;59.450;18.124;2024-02-16T01:16:33;53.63;;;8.43;;
10721;SDS011;5412;59.450;18.124;2024-02-16T01:18:59;46.13;;;8.47;;
10721;SDS011;5412;59.450;18.124;2024-02-16T01:21:25;51.17;;;8.93;;
10721;SDS011;5412;59.450;18.124;2024-02-16T01:23:50;42.73;;;8.43;;
10721;SDS011;5412;59.450;18.124;2024-02-16T01:26:16;126.90;;;10.40;;
10721;SDS011;5412;59.450;18.124;2024-02-16T01:28:42;85.90;;;10.50;;
10721;SDS011;5412;59.450;18.124;2024-02-16T01:31:07;79.67;;;9.93;;
10721;SDS011;5412;59.450;18.124;2024-02-16T01:33:34;107.90;;;10.10;;
10721;SDS011;5412;59.450;18.124;2024-02-16T01:36:01;92.23;;;10.53;;
10721;SDS011;5412;59.450;18.124;2024-02-16T01:38:28;68.40;;;9.00;;
10721;SDS011;5412;59.450;18.124;2024-02-16T01:40:54;56.53;;;7.90;;
10721;SDS011;5412;59.450;18.124;2024-02-16T01:43:19;16.33;;;6.30;;
10721;SDS011;5412;59.450;18.124;2024-02-16T01:45:45;106.00;;;10.93;;
10721;SDS011;5412;59.450;18.124;2024-02-16T01:48:11;185.47;;;13.43;;
10721;SDS011;5412;59.450;18.124;2024-02-16T01:50:45;32.47;;;7.43;;
10721;SDS011;5412;59.450;18.124;2024-02-16T01:53:14;59.50;;;8.83;;
10721;SDS011;5412;59.450;18.124;2024-02-16T01:55:46;52.83;;;8.23;;
10721;SDS011;5412;59.450;18.124;2024-02-16T01:58:12;49.13;;;8.07;;
10721;SDS011;5412;59.450;18.124;2024-02-16T02:00:39;59.27;;;8.03;;
10721;SDS011;5412;59.450;18.124;2024-02-16T02:03:07;39.93;;;7.67;;
10721;SDS011;5412;59.450;18.124;2024-02-16T02:05:33;218.07;;;15.73;;
10721;SDS011;5412;59.450;18.124;2024-02-16T02:08:08;68.87;;;9.23;;
10721;SDS011;5412;59.450;18.124;2024-02-16T02:10:35;49.00;;;7.37;;
10721;SDS011;5412;59.450;18.124;2024-02-16T02:13:00;75.30;;;8.77;;
10721;SDS011;5412;59.450;18.124;2024-02-16T02:15:26;46.77;;;8.00;;
10721;SDS011;5412;59.450;18.124;2024-02-16T02:17:53;100.10;;;11.07;;
10721;SDS011;5412;59.450;18.124;2024-02-16T02:20:19;26.00;;;6.57;;
10721;SDS011;5412;59.450;18.124;2024-02-16T02:22:45;21.70;;;6.37;;
10721;SDS011;5412;59.450;18.124;2024-02-16T02:25:10;108.17;;;12.33;;
10721;SDS011;5412;59.450;18.124;2024-02-16T02:27:37;78.70;;;9.03;;
10721;SDS011;5412;59.450;18.124;2024-02-16T02:30:03;23.80;;;6.47;;
10721;SDS011;5412;59.450;18.124;2024-02-16T02:32:30;26.93;;;7.23;;
10721;SDS011;5412;59.450;18.124;2024-02-16T02:34:55;32.57;;;7.60;;
10721;SDS011;5412;59.450;18.124;2024-02-16T02:37:21;23.80;;;6.90;;
10721;SDS011;5412;59.450;18.124;2024-02-16T02:39:47;35.17;;;6.93;;
10721;SDS011;5412;59.450;18.124;2024-02-16T02:42:13;29.27;;;6.60;;
10721;SDS011;5412;59.450;18.124;2024-02-16T02:44:39;71.13;;;9.53;;
10721;SDS011;5412;59.450;18.124;2024-02-16T02:47:05;16.10;;;6.37;;
10721;SDS011;5412;59.450;18.124;2024-02-16T02:49:31;128.13;;;10.17;;
10721;SDS011;5412;59.450;18.124;2024-02-16T02:51:58;65.57;;;8.57;;
10721;SDS011;5412;59.450;18.124;2024-02-16T02:54:23;113.00;;;10.63;;
10721;SDS011;5412;59.450;18.124;2024-02-16T02:56:49;21.73;;;6.93;;
10721;SDS011;5412;59.450;18.124;2024-02-16T02:59:15;44.37;;;8.93;;
10721;SDS011;5412;59.450;18.124;2024-02-16T03:01:40;22.13;;;5.97;;
10721;SDS011;5412;59.450;18.124;2024-02-16T03:04:06;12.20;;;5.50;;
10721;SDS011;5412;59.450;18.124;2024-02-16T03:06:32;10.93;;;5.77;;
10721;SDS011;5412;59.450;18.124;2024-02-16T03:08:57;15.33;;;6.13;;
10721;SDS011;5412;59.450;18.124;2024-02-16T03:11:23;20.30;;;6.03;;
10721;SDS011;5412;59.450;18.124;2024-02-16T03:13:49;11.00;;;5.57;;
10721;SDS011;5412;59.450;18.124;2024-02-16T03:16:14;9.20;;;5.67;;
10721;SDS011;5412;59.450;18.124;2024-02-16T03:18:40;13.63;;;5.27;;
10721;SDS011;5412;59.450;18.124;2024-02-16T03:21:06;10.73;;;4.47;;
10721;SDS011;5412;59.450;18.124;2024-02-16T03:23:32;5.93;;;4.83;;
10721;SDS011;5412;59.450;18.124;2024-02-16T03:25:58;8.40;;;5.40;;
10721;SDS011;5412;59.450;18.124;2024-02-16T03:28:24;10.57;;;4.80;;
10721;SDS011;5412;59.450;18.124;2024-02-16T03:30:50;10.50;;;5.33;;
10721;SDS011;5412;59.450;18.124;2024-02-16T03:33:16;5.93;;;4.33;;
10721;SDS011;5412;59.450;18.124;2024-02-16T03:35:41;7.57;;;4.30;;
10721;SDS011;5412;59.450;18.124;2024-02-16T03:38:07;6.63;;;4.60;;
10721;SDS011;5412;59.450;18.124;2024-02-16T03:40:33;7.93;;;4.60;;
10721;SDS011;5412;59.450;18.124;2024-02-16T03:42:59;8.27;;;5.00;;
10721;SDS011;5412;59.450;18.124;2024-02-16T03:45:25;7.40;;;4.27;;
10721;SDS011;5412;59.450;18.124;2024-02-16T03:47:53;6.43;;;4.50;;
10721;SDS011;5412;59.450;18.124;2024-02-16T03:50:19;9.10;;;4.57;;
10721;SDS011;5412;59.450;18.124;2024-02-16T03:52:45;6.73;;;4.80;;
10721;SDS011;5412;59.450;18.124;2024-02-16T03:55:11;5.97;;;4.40;;
10721;SDS011;5412;59.450;18.124;2024-02-16T03:57:37;5.63;;;4.20;;
10721;SDS011;5412;59.450;18.124;2024-02-16T04:00:04;10.03;;;4.63;;
10721;SDS011;5412;59.450;18.124;2024-02-16T04:02:31;6.70;;;4.30;;
10721;SDS011;5412;59.450;18.124;2024-02-16T04:04:57;5.33;;;4.40;;
10721;SDS011;5412;59.450;18.124;2024-02-16T04:07:22;5.80;;;4.13;;
10721;SDS011;5412;59.450;18.124;2024-02-16T04:09:49;5.17;;;3.77;;
10721;SDS011;5412;59.450;18.124;2024-02-16T04:12:15;5.20;;;3.70;;
10721;SDS011;5412;59.450;18.124;2024-02-16T04:14:40;5.60;;;3.50;;
10721;SDS011;5412;59.450;18.124;2024-02-16T04:17:07;5.40;;;4.13;;
10721;SDS011;5412;59.450;18.124;2024-02-16T04:19:33;4.13;;;3.23;;
10721;SDS011;5412;59.450;18.124;2024-02-16T04:21:58;4.13;;;3.27;;
10721;SDS011;5412;59.450;18.124;2024-02-16T04:24:24;5.27;;;3.60;;
10721;SDS011;5412;59.450;18.124;2024-02-16T04:26:50;7.20;;;3.50;;
10721;SDS011;5412;59.450;18.124;2024-02-16T04:29:15;4.03;;;3.30;;
10721;SDS011;5412;59.450;18.124;2024-02-16T04:31:41;7.83;;;3.53;;
10721;SDS011;5412;59.450;18.124;2024-02-16T04:34:09;4.70;;;3.63;;
10721;SDS011;5412;59.450;18.124;2024-02-16T04:36:35;4.00;;;3.10;;
10721;SDS011;5412;59.450;18.124;2024-02-16T04:39:01;4.10;;;3.03;;
10721;SDS011;5412;59.450;18.124;2024-02-16T04:41:27;3.47;;;2.93;;
10721;SDS011;5412;59.450;18.124;2024-02-16T04:43:52;3.63;;;3.03;;
10721;SDS011;5412;59.450;18.124;2024-02-16T04:46:18;3.87;;;3.27;;
10721;SDS011;5412;59.450;18.124;2024-02-16T04:48:44;3.80;;;3.40;;
10721;SDS011;5412;59.450;18.124;2024-02-16T04:51:10;4.03;;;3.13;;
10721;SDS011;5412;59.450;18.124;2024-02-16T04:53:36;3.87;;;3.10;;
10721;SDS011;5412;59.450;18.124;2024-02-16T04:56:02;7.17;;;3.20;;
10721;SDS011;5412;59.450;18.124;2024-02-16T04:58:28;3.07;;;2.77;;
10721;SDS011;5412;59.450;18.124;2024-02-16T05:00:54;3.63;;;2.67;;
10721;SDS011;5412;59.450;18.124;2024-02-16T05:03:19;3.87;;;2.50;;
10721;SDS011;5412;59.450;18.124;2024-02-16T05:05:45;4.57;;;2.80;;
10721;SDS011;5412;59.450;18.124;2024-02-16T05:08:11;3.00;;;2.60;;
10721;SDS011;5412;59.450;18.124;2024-02-16T05:10:37;4.07;;;2.60;;
10721;SDS011;5412;59.450;18.124;2024-02-16T05:13:03;3.93;;;2.73;;
10721;SDS011;5412;59.450;18.124;2024-02-16T05:15:29;2.80;;;2.50;;
10721;SDS011;5412;59.450;18.124;2024-02-16T05:17:55;3.77;;;3.00;;
10721;SDS011;5412;59.450;18.124;2024-02-16T05:20:21;2.50;;;2.30;;
10721;SDS011;5412;59.450;18.124;2024-02-16T05:22:46;2.47;;;2.17;;
10721;SDS011;5412;59.450;18.124;2024-02-16T05:25:14;2.33;;;1.97;;
10721;SDS011;5412;59.450;18.124;2024-02-16T05:27:43;3.47;;;2.27;;
10721;SDS011;5412;59.450;18.124;2024-02-16T05:30:11;2.40;;;2.00;;
10721;SDS011;5412;59.450;18.124;2024-02-16T05:32:39;2.53;;;2.00;;
10721;SDS011;5412;59.450;18.124;2024-02-16T05:35:06;2.07;;;1.70;;
10721;SDS011;5412;59.450;18.124;2024-02-16T05:37:41;2.93;;;2.13;;
10721;SDS011;5412;59.450;18.124;2024-02-16T05:40:16;2.37;;;1.93;;
10721;SDS011;5412;59.450;18.124;2024-02-16T05:42:55;2.03;;;1.83;;
10721;SDS011;5412;59.450;18.124;2024-02-16T05:45:23;2.90;;;1.73;;
10721;SDS011;5412;59.450;18.124;2024-02-16T05:47:49;1.93;;;1.50;;
10721;SDS011;5412;59.450;18.124;2024-02-16T05:50:16;2.07;;;1.77;;
10721;SDS011;5412;59.450;18.124;2024-02-16T05:52:42;2.53;;;2.00;;
10721;SDS011;5412;59.450;18.124;2024-02-16T05:55:09;1.53;;;1.43;;
10721;SDS011;5412;59.450;18.124;2024-02-16T05:57:36;2.13;;;1.60;;
10721;SDS011;5412;59.450;18.124;2024-02-16T06:00:06;1.50;;;1.40;;
10721;SDS011;5412;59.450;18.124;2024-02-16T06:02:33;1.80;;;1.70;;
10721;SDS011;5412;59.450;18.124;2024-02-16T06:05:00;2.20;;;1.83;;
10721;SDS011;5412;59.450;18.124;2024-02-16T06:07:27;1.73;;;1.40;;
10721;SDS011;5412;59.450;18.124;2024-02-16T06:09:54;1.57;;;1.40;;
10721;SDS011;5412;59.450;18.124;2024-02-16T06:12:21;1.43;;;1.30;;
10721;SDS011;5412;59.450;18.124;2024-02-16T06:14:47;1.50;;;1.40;;
10721;SDS011;5412;59.450;18.124;2024-02-16T06:17:16;1.70;;;1.37;;
10721;SDS011;5412;59.450;18.124;2024-02-16T06:19:42;1.20;;;1.10;;
10721;SDS011;5412;59.450;18.124;2024-02-16T06:22:09;1.50;;;1.30;;
10721;SDS011;5412;59.450;18.124;2024-02-16T06:24:37;1.20;;;1.10;;
10721;SDS011;5412;59.450;18.124;2024-02-16T06:27:03;1.53;;;1.30;;
10721;SDS011;5412;59.450;18.124;2024-02-16T06:29:29;1.83;;;1.40;;
10721;SDS011;5412;59.450;18.124;2024-02-16T06:31:55;1.20;;;1.10;;
10721;SDS011;5412;59.450;18.124;2024-02-16T06:34:21;1.00;;;1.00;;
10721;SDS011;5412;59.450;18.124;2024-02-16T06:36:47;1.27;;;1.00;;
10721;SDS011;5412;59.450;18.124;2024-02-16T06:39:14;1.20;;;1.10;;
10721;SDS011;5412;59.450;18.124;2024-02-16T06:41:45;1.10;;;1.10;;
10721;SDS011;5412;59.450;18.124;2024-02-16T06:44:14;1.20;;;1.10;;
10721;SDS011;5412;59.450;18.124;2024-02-16T06:46:40;1.83;;;0.97;;
10721;SDS011;5412;59.450;18.124;2024-02-16T06:49:06;1.10;;;1.00;;
10721;SDS011;5412;59.450;18.124;2024-02-16T06:51:32;1.30;;;1.10;;
10721;SDS011;5412;59.450;18.124;2024-02-16T06:53:58;1.47;;;1.00;;
10721;SDS011;5412;59.450;18.124;2024-02-16T06:56:24;1.37;;;1.13;;
10721;SDS011;5412;59.450;18.124;2024-02-16T06:58:49;0.87;;;0.77;;
10721;SDS011;5412;59.450;18.124;2024-02-16T07:01:15;1.67;;;1.13;;
10721;SDS011;5412;59.450;18.124;2024-02-16T07:03:43;1.30;;;1.03;;
10721;SDS011;5412;59.450;18.124;2024-02-16T07:06:09;1.73;;;1.00;;
10721;SDS011;5412;59.450;18.124;2024-02-16T07:08:38;1.30;;;1.20;;
10721;SDS011;5412;59.450;18.124;2024-02-16T07:11:05;1.07;;;1.00;;
10721;SDS011;5412;59.450;18.124;2024-02-16T07:13:33;1.33;;;0.97;;
10721;SDS011;5412;59.450;18.124;2024-02-16T07:15:59;1.20;;;0.93;;
10721;SDS011;5412;59.450;18.124;2024-02-16T07:18:25;1.67;;;1.07;;
10721;SDS011;5412;59.450;18.124;2024-02-16T07:20:51;0.90;;;0.90;;
10721;SDS011;5412;59.450;18.124;2024-02-16T07:23:17;1.00;;;0.90;;
10721;SDS011;5412;59.450;18.124;2024-02-16T07:25:43;1.07;;;0.90;;
10721;SDS011;5412;59.450;18.124;2024-02-16T07:28:08;3.30;;;0.80;;
10721;SDS011;5412;59.450;18.124;2024-02-16T07:30:35;0.90;;;0.90;;
10721;SDS011;5412;59.450;18.124;2024-02-16T07:33:04;0.77;;;0.73;;
10721;SDS011;5412;59.450;18.124;2024-02-16T07:35:30;0.80;;;0.80;;
10721;SDS011;5412;59.450;18.124;2024-02-16T07:37:55;1.63;;;0.90;;
10721;SDS011;5412;59.450;18.124;2024-02-16T07:40:21;0.80;;;0.80;;
10721;SDS011;5412;59.450;18.124;2024-02-16T07:42:47;0.97;;;0.70;;
10721;SDS011;5412;59.450;18.124;2024-02-16T07:45:12;1.23;;;0.90;;
10721;SDS011;5412;59.450;18.124;2024-02-16T07:47:40;0.80;;;0.80;;
10721;SDS011;5412;59.450;18.124;2024-02-16T07:50:06;1.10;;;0.80;;
10721;SDS011;5412;59.450;18.124;2024-02-16T07:52:32;1.00;;;0.90;;
10721;SDS011;5412;59.450;18.124;2024-02-16T07:54:58;0.93;;;0.87;;
10721;SDS011;5412;59.450;18.124;2024-02-16T07:57:24;0.70;;;0.70;;
10721;SDS011;5412;59.450;18.124;2024-02-16T07:59:50;1.60;;;0.90;;
10721;SDS011;5412;59.450;18.124;2024-02-16T08:02:16;1.07;;;0.80;;
10721;SDS011;5412;59.450;18.124;2024-02-16T08:04:43;1.20;;;0.90;;
10721;SDS011;5412;59.450;18.124;2024-02-16T08:07:14;0.80;;;0.80;;
10721;SDS011;5412;59.450;18.124;2024-02-16T08:09:44;0.80;;;0.80;;
10721;SDS011;5412;59.450;18.124;2024-02-16T08:12:10;0.97;;;0.67;;
10721;SDS011;5412;59.450;18.124;2024-02-16T08:14:37;0.80;;;0.80;;
10721;SDS011;5412;59.450;18.124;2024-02-16T08:17:06;1.17;;;0.90;;
10721;SDS011;5412;59.450;18.124;2024-02-16T08:19:33;0.70;;;0.60;;
10721;SDS011;5412;59.450;18.124;2024-02-16T08:22:01;0.90;;;0.90;;
10721;SDS011;5412;59.450;18.124;2024-02-16T08:24:32;3.17;;;0.90;;
10721;SDS011;5412;59.450;18.124;2024-02-16T08:26:58;0.87;;;0.80;;
10721;SDS011;5412;59.450;18.124;2024-02-16T08:29:24;0.80;;;0.80;;
10721;SDS011;5412;59.450;18.124;2024-02-16T08:31:50;0.90;;;0.70;;
10721;SDS011;5412;59.450;18.124;2024-02-16T08:34:17;1.10;;;1.00;;
10721;SDS011;5412;59.450;18.124;2024-02-16T08:36:47;2.10;;;1.00;;
10721;SDS011;5412;59.450;18.124;2024-02-16T08:39:13;1.30;;;0.90;;
10721;SDS011;5412;59.450;18.124;2024-02-16T08:41:39;0.80;;;0.80;;
10721;SDS011;5412;59.450;18.124;2024-02-16T08:44:08;1.30;;;1.20;;
10721;SDS011;5412;59.450;18.124;2024-02-16T08:46:35;1.70;;;0.80;;
10721;SDS011;5412;59.450;18.124;2024-02-16T08:49:01;0.77;;;0.77;;
10721;SDS011;5412;59.450;18.124;2024-02-16T08:51:28;0.97;;;0.90;;
10721;SDS011;5412;59.450;18.124;2024-02-16T08:53:53;3.07;;;1.23;;
10721;SDS011;5412;59.450;18.124;2024-02-16T08:56:19;1.07;;;0.97;;
10721;SDS011;5412;59.450;18.124;2024-02-16T08:58:45;0.77;;;0.77;;
10721;SDS011;5412;59.450;18.124;2024-02-16T09:01:11;0.80;;;0.80;;
10721;SDS011;5412;59.450;18.124;2024-02-16T09:03:37;3.40;;;0.90;;
10721;SDS011;5412;59.450;18.124;2024-02-16T09:06:05;1.03;;;0.90;;
10721;SDS011;5412;59.450;18.124;2024-02-16T09:08:31;0.77;;;0.77;;
10721;SDS011;5412;59.450;18.124;2024-02-16T09:10:59;1.20;;;1.10;;
10721;SDS011;5412;59.450;18.124;2024-02-16T09:13:25;0.87;;;0.87;;
10721;SDS011;5412;59.450;18.124;2024-02-16T09:15:51;1.37;;;0.93;;
10721;SDS011;5412;59.450;18.124;2024-02-16T09:18:17;0.77;;;0.77;;
10721;SDS011;5412;59.450;18.124;2024-02-16T09:20:43;0.90;;;0.90;;
10721;SDS011;5412;59.450;18.124;2024-02-16T09:23:08;1.53;;;0.67;;
10721;SDS011;5412;59.450;18.124;2024-02-16T09:25:35;1.23;;;0.73;;
10721;SDS011;5412;59.450;18.124;2024-02-16T09:28:01;1.13;;;0.80;;
10721;SDS011;5412;59.450;18.124;2024-02-16T09:30:27;2.23;;;0.80;;
10721;SDS011;5412;59.450;18.124;2024-02-16T09:32:53;1.93;;;0.80;;
10721;SDS011;5412;59.450;18.124;2024-02-16T09:35:19;1.40;;;0.70;;
10721;SDS011;5412;59.450;18.124;2024-02-16T09:37:44;1.30;;;1.10;;
10721;SDS011;5412;59.450;18.124;2024-02-16T09:40:13;3.13;;;1.13;;
10721;SDS011;5412;59.450;18.124;2024-02-16T09:42:40;1.80;;;1.33;;
10721;SDS011;5412;59.450;18.124;2024-02-16T09:45:09;1.43;;;1.00;;
10721;SDS011;5412;59.450;18.124;2024-02-16T09:47:37;0.83;;;0.80;;
10721;SDS011;5412;59.450;18.124;2024-02-16T09:50:04;1.10;;;1.00;;
10721;SDS011;5412;59.450;18.124;2024-02-16T09:52:30;1.07;;;0.73;;
10721;SDS011;5412;59.450;18.124;2024-02-16T09:54:56;1.40;;;0.67;;
10721;SDS011;5412;59.450;18.124;2024-02-16T09:57:23;1.93;;;0.77;;
10721;SDS011;5412;59.450;18.124;2024-02-16T09:59:49;1.10;;;1.00;;
10721;SDS011;5412;59.450;18.124;2024-02-16T10:02:14;0.60;;;0.60;;
10721;SDS011;5412;59.450;18.124;2024-02-16T10:04:40;1.30;;;0.80;;
10721;SDS011;5412;59.450;18.124;2024-02-16T10:07:06;1.33;;;0.90;;
10721;SDS011;5412;59.450;18.124;2024-02-16T10:09:32;1.90;;;0.80;;
10721;SDS011;5412;59.450;18.124;2024-02-16T10:11:58;0.73;;;0.70;;
10721;SDS011;5412;59.450;18.124;2024-02-16T10:14:24;0.70;;;0.70;;
10721;SDS011;5412;59.450;18.124;2024-02-16T10:17:02;1.13;;;0.90;;
10721;SDS011;5412;59.450;18.124;2024-02-16T10:19:29;1.90;;;0.90;;
10721;SDS011;5412;59.450;18.124;2024-02-16T10:22:11;0.90;;;0.60;;
10721;SDS011;5412;59.450;18.124;2024-02-16T10:24:37;1.67;;;0.87;;
10721;SDS011;5412;59.450;18.124;2024-02-16T10:27:06;1.33;;;1.00;;
10721;SDS011;5412;59.450;18.124;2024-02-16T10:29:38;1.00;;;0.90;;
10721;SDS011;5412;59.450;18.124;2024-02-16T10:32:07;2.00;;;0.90;;
10721;SDS011;5412;59.450;18.124;2024-02-16T10:34:32;0.70;;;0.67;;
10721;SDS011;5412;59.450;18.124;2024-02-16T10:36:59;1.20;;;1.07;;
10721;SDS011;5412;59.450;18.124;2024-02-16T10:39:26;3.27;;;0.70;;
10721;SDS011;5412;59.450;18.124;2024-02-16T10:41:52;1.27;;;1.00;;
10721;SDS011;5412;59.450;18.124;2024-02-16T10:44:20;0.63;;;0.63;;
10721;SDS011;5412;59.450;18.124;2024-02-16T10:46:46;1.33;;;1.17;;
10721;SDS011;5412;59.450;18.124;2024-02-16T10:49:12;2.87;;;0.87;;
10721;SDS011;5412;59.450;18.124;2024-02-16T10:51:40;0.70;;;0.70;;
10721;SDS011;5412;59.450;18.124;2024-02-16T10:54:10;0.70;;;0.70;;
10721;SDS011;5412;59.450;18.124;2024-02-16T10:56:40;0.87;;;0.80;;
10721;SDS011;5412;59.450;18.124;2024-02-16T10:59:07;3.10;;;0.90;;
10721;SDS011;5412;59.450;18.124;2024-02-16T11:01:41;1.00;;;0.90;;
10721;SDS011;5412;59.450;18.124;2024-02-16T11:04:08;0.90;;;0.90;;
10721;SDS011;5412;59.450;18.124;2024-02-16T11:06:54;0.80;;;0.77;;
10721;SDS011;5412;59.450;18.124;2024-02-16T11:11:59;0.83;;;0.83;;
10721;SDS011;5412;59.450;18.124;2024-02-16T11:14:39;1.93;;;0.97;;
10721;SDS011;5412;59.450;18.124;2024-02-16T11:17:15;3.93;;;1.13;;
10721;SDS011;5412;59.450;18.124;2024-02-16T11:19:46;0.80;;;0.70;;
10721;SDS011;5412;59.450;18.124;2024-02-16T11:22:16;0.73;;;0.73;;
10721;SDS011;5412;59.450;18.124;2024-02-16T11:24:43;1.63;;;0.83;;
10721;SDS011;5412;59.450;18.124;2024-02-16T11:27:13;3.87;;;1.20;;
10721;SDS011;5412;59.450;18.124;2024-02-16T11:29:47;1.17;;;0.67;;
10721;SDS011;5412;59.450;18.124;2024-02-16T11:32:13;3.03;;;0.90;;
10721;SDS011;5412;59.450;18.124;2024-02-16T11:34:39;6.93;;;0.80;;
10721;SDS011;5412;59.450;18.124;2024-02-16T11:37:05;0.90;;;0.80;;
10721;SDS011;5412;59.450;18.124;2024-02-16T11:39:31;1.07;;;1.00;;
10721;SDS011;5412;59.450;18.124;2024-02-16T11:42:07;1.57;;;0.73;;
10721;SDS011;5412;59.450;18.124;2024-02-16T11:44:37;1.03;;;0.80;;
10721;SDS011;5412;59.450;18.124;2024-02-16T11:47:07;1.10;;;1.00;;
10721;SDS011;5412;59.450;18.124;2024-02-16T11:49:37;1.53;;;0.80;;
10721;SDS011;5412;59.450;18.124;2024-02-16T11:52:09;1.47;;;1.00;;
10721;SDS011;5412;59.450;18.124;2024-02-16T11:54:35;0.80;;;0.80;;
10721;SDS011;5412;59.450;18.124;2024-02-16T11:57:02;0.90;;;0.90;;
10721;SDS011;5412;59.450;18.124;2024-02-16T11:59:28;0.87;;;0.80;;
10721;SDS011;5412;59.450;18.124;2024-02-16T12:01:57;1.50;;;1.07;;
10721;SDS011;5412;59.450;18.124;2024-02-16T12:04:24;1.27;;;1.07;;
10721;SDS011;5412;59.450;18.124;2024-02-16T12:07:00;1.13;;;1.03;;
10721;SDS011;5412;59.450;18.124;2024-02-16T12:09:27;1.33;;;1.07;;
10721;SDS011;5412;59.450;18.124;2024-02-16T12:11:53;1.10;;;1.00;;
10721;SDS011;5412;59.450;18.124;2024-02-16T12:14:23;1.10;;;1.00;;
10721;SDS011;5412;59.450;18.124;2024-02-16T12:16:56;0.90;;;0.90;;
10721;SDS011;5412;59.450;18.124;2024-02-16T12:19:22;1.10;;;1.00;;
10721;SDS011;5412;59.450;18.124;2024-02-16T12:21:52;0.97;;;0.97;;
10721;SDS011;5412;59.450;18.124;2024-02-16T12:24:19;0.90;;;0.90;;
10721;SDS011;5412;59.450;18.124;2024-02-16T12:26:45;1.10;;;1.00;;
10721;SDS011;5412;59.450;18.124;2024-02-16T12:29:11;1.43;;;1.30;;
10721;SDS011;5412;59.450;18.124;2024-02-16T12:31:44;1.37;;;0.90;;
10721;SDS011;5412;59.450;18.124;2024-02-16T12:34:12;1.10;;;1.00;;
10721;SDS011;5412;59.450;18.124;2024-02-16T12:36:38;1.73;;;1.00;;
10721;SDS011;5412;59.450;18.124;2024-02-16T12:39:05;1.30;;;1.17;;
10721;SDS011;5412;59.450;18.124;2024-02-16T12:41:34;1.27;;;1.00;;
10721;SDS011;5412;59.450;18.124;2024-02-16T12:44:03;1.13;;;1.03;;
10721;SDS011;5412;59.450;18.124;2024-02-16T12:46:30;2.37;;;1.40;;
10721;SDS011;5412;59.450;18.124;2024-02-16T12:48:56;1.77;;;1.00;;
10721;SDS011;5412;59.450;18.124;2024-02-16T12:51:22;1.00;;;0.90;;
10721;SDS011;5412;59.450;18.124;2024-02-16T12:53:48;0.90;;;0.90;;
10721;SDS011;5412;59.450;18.124;2024-02-16T12:56:14;2.67;;;1.10;;
10721;SDS011;5412;59.450;18.124;2024-02-16T12:58:39;1.30;;;1.00;;
10721;SDS011;5412;59.450;18.124;2024-02-16T13:01:05;1.20;;;1.10;;
10721;SDS011;5412;59.450;18.124;2024-02-16T13:03:35;1.30;;;1.03;;
10721;SDS011;5412;59.450;18.124;2024-02-16T13:06:02;1.43;;;1.10;;
10721;SDS011;5412;59.450;18.124;2024-02-16T13:08:28;1.10;;;0.90;;
10721;SDS011;5412;59.450;18.124;2024-02-16T13:10:55;1.10;;;1.00;;
10721;SDS011;5412;59.450;18.124;2024-02-16T13:13:21;1.20;;;1.10;;
10721;SDS011;5412;59.450;18.124;2024-02-16T13:15:47;1.67;;;1.13;;
10721;SDS011;5412;59.450;18.124;2024-02-16T13:18:13;1.20;;;0.97;;
10721;SDS011;5412;59.450;18.124;2024-02-16T13:20:39;1.10;;;1.00;;
10721;SDS011;5412;59.450;18.124;2024-02-16T13:23:05;1.40;;;0.88;;
10721;SDS011;5412;59.450;18.124;2024-02-16T13:25:31;1.52;;;0.90;;
10721;SDS011;5412;59.450;18.124;2024-02-16T13:27:56;1.20;;;1.00;;
10721;SDS011;5412;59.450;18.124;2024-02-16T13:30:22;1.00;;;1.00;;
10721;SDS011;5412;59.450;18.124;2024-02-16T13:32:48;0.70;;;0.70;;
10721;SDS011;5412;59.450;18.124;2024-02-16T13:35:14;1.92;;;1.02;;
10721;SDS011;5412;59.450;18.124;2024-02-16T13:37:40;1.10;;;1.00;;
10721;SDS011;5412;59.450;18.124;2024-02-16T13:40:08;2.08;;;0.88;;
10721;SDS011;5412;59.450;18.124;2024-02-16T13:42:40;1.63;;;0.73;;
10721;SDS011;5412;59.450;18.124;2024-02-16T13:45:07;0.50;;;0.50;;
10721;SDS011;5412;59.450;18.124;2024-02-16T13:47:33;1.08;;;0.50;;
10721;SDS011;5412;59.450;18.124;2024-02-16T13:49:59;0.57;;;0.57;;
10721;SDS011;5412;59.450;18.124;2024-02-16T13:52:25;1.05;;;0.75;;
10721;SDS011;5412;59.450;18.124;2024-02-16T13:54:51;0.95;;;0.80;;
10721;SDS011;5412;59.450;18.124;2024-02-16T13:57:17;1.02;;;0.52;;
10721;SDS011;5412;59.450;18.124;2024-02-16T13:59:44;0.63;;;0.50;;
10721;SDS011;5412;59.450;18.124;2024-02-16T14:02:11;1.10;;;0.70;;
10721;SDS011;5412;59.450;18.124;2024-02-16T14:04:37;1.33;;;0.80;;
10721;SDS011;5412;59.450;18.124;2024-02-16T14:07:03;1.88;;;0.93;;
10721;SDS011;5412;59.450;18.124;2024-02-16T14:09:29;0.85;;;0.60;;
10721;SDS011;5412;59.450;18.124;2024-02-16T14:11:55;1.42;;;0.80;;
10721;SDS011;5412;59.450;18.124;2024-02-16T14:14:23;0.80;;;0.80;;
10721;SDS011;5412;59.450;18.124;2024-02-16T14:16:49;1.02;;;0.70;;
10721;SDS011;5412;59.450;18.124;2024-02-16T14:19:15;0.88;;;0.88;;
10721;SDS011;5412;59.450;18.124;2024-02-16T14:21:42;1.27;;;1.02;;
10721;SDS011;5412;59.450;18.124;2024-02-16T14:24:08;1.10;;;1.00;;
10721;SDS011;5412;59.450;18.124;2024-02-16T14:26:35;1.10;;;1.00;;
10721;SDS011;5412;59.450;18.124;2024-02-16T14:29:01;12.10;;;1.85;;
10721;SDS011;5412;59.450;18.124;2024-02-16T14:31:27;9.38;;;1.38;;
10721;SDS011;5412;59.450;18.124;2024-02-16T14:33:54;5.32;;;1.40;;
10721;SDS011;5412;59.450;18.124;2024-02-16T14:36:21;62.95;;;3.42;;
10721;SDS011;5412;59.450;18.124;2024-02-16T14:38:46;7.35;;;1.38;;
10721;SDS011;5412;59.450;18.124;2024-02-16T14:41:13;2.97;;;1.00;;
10721;SDS011;5412;59.450;18.124;2024-02-16T14:43:41;6.07;;;1.00;;